Time;durP1;ratioP1;P1;durP2;ratioP2;P2;SDS_P1;SDS_P2;PMS_P1;PMS_P2;Temp;Humidity;BMP_temperature;BMP_pressure;BME280_temperature;BME280_humidity;BME280_pressure;Samples;Min_cycle;Max_cycle;Signal;HPM_P1;HPM_P2
2024/04/12 00:02:11;;;;;;;4.20;1.90;;;11.20;47.20;;;13.11;38.96;99187.81;5376529;26;20041;-35
2024/04/12 00:04:41;;;;;;;2.73;1.67;;;11.20;47.00;;;13.12;38.81;99178.81;5380083;26;20484;-35
2024/04/12 00:07:13;;;;;;;2.90;1.70;;;11.20;47.00;;;13.10;39.17;99178.09;5378720;26;20036;-36
2024/04/12 00:09:52;;;;;;;2.80;1.63;;;11.30;47.20;;;13.09;38.83;99179.94;5366130;26;20063;-36
2024/04/12 00:12:26;;;;;;;3.03;1.90;;;11.20;47.20;;;13.08;39.20;99180.06;5378795;26;20005;-35
2024/04/12 00:15:15;;;;;;;3.90;2.00;;;11.20;47.50;;;13.06;39.18;99176.69;5379970;26;20044;-35
2024/04/12 00:17:45;;;;;;;4.00;1.97;;;11.10;47.70;;;13.05;39.07;99172.34;5380431;26;20044;-36
2024/04/12 00:20:12;;;;;;;3.77;2.20;;;11.20;47.60;;;13.04;39.62;99167.97;5378192;26;20103;-36
2024/04/12 00:22:43;;;;;;;4.10;2.40;;;11.10;47.90;;;13.04;39.07;99171.47;5380459;26;20051;-36
2024/04/12 00:25:12;;;;;;;3.27;1.67;;;11.10;48.00;;;13.05;39.54;99169.66;5379939;26;20036;-36
2024/04/12 00:27:41;;;;;;;5.50;2.00;;;11.10;48.00;;;13.06;39.33;99168.66;5366769;26;20032;-36
2024/04/12 00:30:10;;;;;;;6.33;2.53;;;11.20;47.80;;;13.06;39.34;99168.66;5378296;26;20028;-36
2024/04/12 00:32:42;;;;;;;4.00;2.50;;;11.20;48.10;;;13.05;39.61;99164.31;5372371;26;20041;-36
2024/04/12 00:35:11;;;;;;;3.30;2.20;;;11.10;48.50;;;13.04;39.37;99168.81;5372179;26;20036;-36
2024/04/12 00:37:52;;;;;;;5.03;3.13;;;11.10;48.70;;;13.03;39.53;99171.59;5366575;26;20028;-36
2024/04/12 00:40:21;;;;;;;7.93;2.60;;;11.10;48.80;;;13.02;39.21;99172.59;5380232;26;20027;-36
2024/04/12 00:42:50;;;;;;;6.63;2.20;;;11.00;49.10;;;12.99;39.44;99174.59;5380125;26;20473;-36
2024/04/12 00:45:39;;;;;;;5.27;2.60;;;11.00;49.30;;;12.97;40.10;99167.69;5379312;26;20028;-36
2024/04/12 00:48:09;;;;;;;4.03;2.33;;;11.00;50.20;;;12.96;40.16;99168.66;5354063;26;20028;-36
2024/04/12 00:50:40;;;;;;;2.43;2.17;;;11.00;49.70;;;12.94;40.16;99174.13;5379996;26;20036;-36
2024/04/12 00:53:13;;;;;;;6.30;2.20;;;11.00;50.00;;;12.91;40.73;99173.56;5379656;26;20036;-36
2024/04/12 00:55:41;;;;;;;2.60;1.67;;;10.90;51.40;;;12.85;40.85;99171.47;5364064;26;20036;-36
2024/04/12 00:58:11;;;;;;;3.57;1.87;;;10.80;51.80;;;12.78;41.27;99169.34;5377834;26;20036;-36
2024/04/12 01:00:46;;;;;;;3.83;2.00;;;10.70;52.40;;;12.74;41.30;99164.44;5379766;26;20036;-36
2024/04/12 01:03:15;;;;;;;4.30;2.03;;;10.70;52.80;;;12.69;41.34;99167.50;5377663;26;20052;-36
2024/04/12 01:05:43;;;;;;;3.47;2.10;;;10.60;52.50;;;12.67;41.42;99171.28;5366379;26;20056;-36
2024/04/12 01:08:11;;;;;;;2.57;1.90;;;10.60;52.70;;;12.61;41.56;99173.53;5379614;26;20040;-36
2024/04/12 01:10:39;;;;;;;4.80;2.27;;;10.60;52.60;;;12.59;41.80;99166.63;5379263;26;20044;-36
2024/04/12 01:13:11;;;;;;;4.10;2.37;;;10.60;53.30;;;12.55;41.95;99171.41;5376668;26;20004;-36
2024/04/12 01:15:39;;;;;;;4.10;2.40;;;10.50;53.70;;;12.51;41.70;99179.84;5362900;26;20033;-36
2024/04/12 01:18:14;;;;;;;3.40;1.97;;;10.40;53.30;;;12.48;42.03;99178.25;5379770;26;20036;-36
2024/04/12 01:20:43;;;;;;;5.23;2.60;;;10.40;53.30;;;12.46;42.02;99179.38;5365364;26;20032;-36
2024/04/12 01:23:15;;;;;;;6.83;2.80;;;10.40;53.50;;;12.40;42.32;99178.94;5378981;26;20128;-36
2024/04/12 01:25:44;;;;;;;6.10;2.33;;;10.30;53.80;;;12.36;42.09;99171.34;5365289;26;20056;-36
2024/04/12 01:28:15;;;;;;;2.97;2.27;;;10.30;53.70;;;12.31;42.36;99171.75;5379666;26;20040;-36
2024/04/12 01:30:46;;;;;;;4.07;2.90;;;10.20;53.80;;;12.24;42.12;99167.94;5365091;26;20041;-36
2024/04/12 01:33:15;;;;;;;4.00;2.70;;;10.10;54.90;;;12.17;42.70;99169.44;5378878;26;20045;-36
2024/04/12 01:35:44;;;;;;;3.93;2.23;;;10.00;55.20;;;12.12;42.88;99166.34;5376644;26;20036;-36
2024/04/12 01:38:16;;;;;;;4.90;2.73;;;9.90;55.60;;;12.07;42.59;99165.88;5377074;26;20032;-36
2024/04/12 01:40:57;;;;;;;4.25;2.10;;;9.90;55.80;;;12.04;43.01;99171.47;5377909;26;20353;-36
2024/04/12 01:43:28;;;;;;;4.80;2.33;;;9.90;55.50;;;12.02;43.01;99164.47;5378891;26;20032;-36
2024/04/12 01:45:56;;;;;;;3.47;2.60;;;9.90;55.40;;;11.98;42.87;99165.72;5376944;26;20044;-36
2024/04/12 01:48:25;;;;;;;5.37;2.60;;;9.80;55.60;;;11.94;42.71;99164.28;5379092;26;20032;-37
2024/04/12 01:50:53;;;;;;;4.97;2.37;;;9.80;55.60;;;11.94;42.85;99166.97;5378756;26;20036;-36
2024/04/12 01:53:22;;;;;;;6.97;2.77;;;9.80;55.30;;;11.94;42.71;99160.75;5378571;26;20479;-36
2024/04/12 01:55:50;;;;;;;4.30;2.50;;;9.90;55.10;;;11.93;43.09;99165.25;5378686;26;20028;-36
2024/04/12 01:58:19;;;;;;;5.23;2.60;;;9.90;55.00;;;11.95;43.00;99162.47;5379050;26;20036;-36
2024/04/12 02:00:52;;;;;;;5.30;2.77;;;10.00;54.60;;;11.96;42.67;99159.66;5365040;26;20048;-36
2024/04/12 02:03:21;;;;;;;4.80;2.43;;;10.00;53.90;;;11.97;42.83;99158.66;5375792;26;20373;-36
2024/04/12 02:05:49;;;;;;;3.53;2.40;;;10.00;53.40;;;11.99;42.68;99156.72;5379205;26;20036;-36
2024/04/12 02:08:17;;;;;;;7.13;2.80;;;10.10;53.30;;;12.01;42.04;99159.25;5379096;26;20055;-36
2024/04/12 02:10:48;;;;;;;5.13;2.50;;;10.10;53.20;;;12.04;42.08;99158.13;5378785;26;20036;-36
2024/04/12 02:13:18;;;;;;;3.80;2.60;;;10.20;52.60;;;12.09;42.22;99161.25;5376544;26;20357;-36
2024/04/12 02:15:48;;;;;;;4.63;2.20;;;10.20;52.30;;;12.09;42.03;99159.44;5406638;26;20028;-36
2024/04/12 02:18:19;;;;;;;19.83;3.13;;;10.20;52.10;;;12.13;41.87;99165.34;5379365;26;20042;-36
2024/04/12 02:20:51;;;;;;;4.07;2.13;;;10.30;51.90;;;12.16;41.85;99157.09;5364296;26;20032;-36
2024/04/12 02:23:21;;;;;;;3.03;2.10;;;10.30;51.80;;;12.21;42.04;99163.72;5405244;26;20032;-36
2024/04/12 02:25:50;;;;;;;7.60;2.60;;;10.40;51.40;;;12.24;41.34;99167.94;5365849;26;20038;-36
2024/04/12 02:28:19;;;;;;;3.70;2.33;;;10.40;51.30;;;12.26;41.95;99163.28;5378377;26;20041;-36
2024/04/12 02:30:57;;;;;;;5.17;2.40;;;10.40;51.30;;;12.27;41.74;99164.13;5378407;26;20040;-36
2024/04/12 02:33:31;;;;;;;10.00;3.10;;;10.40;51.40;;;12.25;41.93;99158.91;5378028;26;20051;-36
2024/04/12 02:36:12;;;;;;;5.00;2.20;;;10.40;51.60;;;12.25;41.96;99161.59;5376490;26;20032;-36
2024/04/12 02:38:49;;;;;;;7.07;3.23;;;10.30;51.90;;;12.24;41.88;99154.56;5378586;26;20112;-36
2024/04/12 02:41:20;;;;;;;6.87;3.07;;;10.30;52.20;;;12.21;41.76;99150.38;5378587;26;20031;-40
2024/04/12 02:43:51;;;;;;;6.60;2.67;;;10.30;52.30;;;12.17;42.03;99159.63;5378371;26;20036;-41
2024/04/12 02:46:23;;;;;;;5.00;3.00;;;10.20;52.50;;;12.17;42.04;99162.28;5378835;26;20032;-40
2024/04/12 02:48:51;;;;;;;4.20;2.60;;;10.20;52.70;;;12.16;42.12;99160.59;5362863;26;20678;-40
2024/04/12 02:51:22;;;;;;;7.17;3.27;;;10.20;52.50;;;12.16;42.17;99147.25;5378225;26;20020;-40
2024/04/12 02:53:51;;;;;;;4.00;2.50;;;10.20;52.50;;;12.16;42.33;99155.25;5378136;26;20047;-40
2024/04/12 02:56:24;;;;;;;4.50;2.60;;;10.20;52.50;;;12.15;41.74;99153.53;5377602;26;20375;-40
2024/04/12 02:58:53;;;;;;;6.23;2.60;;;10.20;52.40;;;12.15;41.95;99150.88;5378032;26;20024;-40
2024/04/12 03:01:24;;;;;;;4.07;2.63;;;10.20;52.50;;;12.15;42.15;99150.03;5373746;26;20487;-40
2024/04/12 03:03:56;;;;;;;5.70;3.20;;;10.20;52.50;;;12.16;42.07;99157.09;5377110;26;20489;-39
2024/04/12 03:06:26;;;;;;;4.53;3.00;;;10.20;52.50;;;12.16;42.18;99165.09;5376144;26;20376;-41
2024/04/12 03:08:59;;;;;;;4.53;2.70;;;10.20;52.70;;;12.17;42.37;99161.44;5364205;26;20281;-40
2024/04/12 03:11:34;;;;;;;7.17;3.03;;;10.20;52.70;;;12.18;41.98;99165.81;5378014;26;20458;-40
2024/04/12 03:14:09;;;;;;;5.90;3.43;;;10.30;52.50;;;12.20;42.48;99162.00;5377774;26;20036;-40
2024/04/12 03:16:41;;;;;;;5.77;3.07;;;10.30;52.60;;;12.19;42.32;99167.47;5374555;26;20386;-40
2024/04/12 03:19:19;;;;;;;6.00;3.90;;;10.30;52.50;;;12.16;42.57;99173.94;5353143;26;20049;-40
2024/04/12 03:21:50;;;;;;;7.23;3.97;;;10.30;52.80;;;12.10;42.51;99171.81;5376664;26;20048;-40
2024/04/12 03:24:19;;;;;;;6.27;3.60;;;10.20;52.90;;;12.08;42.60;99172.91;5377457;26;20479;-40
2024/04/12 03:26:47;;;;;;;6.57;3.20;;;10.10;53.30;;;12.03;42.56;99170.63;5377636;26;20496;-41
2024/04/12 03:29:16;;;;;;;6.33;3.40;;;10.00;54.10;;;11.97;43.16;99177.34;5377714;26;20040;-40
2024/04/12 03:31:47;;;;;;;5.70;3.10;;;10.00;54.50;;;11.94;43.15;99177.63;5377751;26;20036;-40
2024/04/12 03:34:16;;;;;;;7.00;2.97;;;9.80;55.10;;;11.91;43.28;99171.72;5377143;26;20044;-40
2024/04/12 03:42:05;;;;;;;8.33;3.47;;;9.70;55.70;;;11.78;43.59;99183.38;5375590;26;20130;-40
2024/04/12 03:44:36;;;;;;;;;;;9.70;56.30;;;11.75;43.46;99178.34;5377805;26;20100;-45
2024/04/12 03:47:09;;;;;;;4.50;3.13;;;9.70;56.80;;;11.75;43.83;99172.16;5377648;26;19954;-40
2024/04/12 03:49:41;;;;;;;4.07;3.03;;;9.70;56.30;;;11.72;43.76;99175.91;5375460;26;20341;-40
2024/04/12 03:52:12;;;;;;;8.17;4.30;;;9.70;56.30;;;11.69;43.48;99178.00;5375330;26;20059;-41
2024/04/12 03:54:45;;;;;;;10.17;5.07;;;9.70;56.00;;;11.62;44.21;99175.03;5376962;26;20032;-45
2024/04/12 03:57:13;;;;;;;6.23;3.63;;;9.60;56.40;;;11.59;43.83;99181.47;5375438;26;20048;-41
2024/04/12 03:59:44;;;;;;;5.77;3.67;;;9.50;56.60;;;11.55;44.24;99172.00;5377311;26;20032;-41
2024/04/12 04:02:15;;;;;;;6.43;3.77;;;9.50;56.80;;;11.53;43.77;99181.13;5389720;26;20040;-41
2024/04/12 04:04:44;;;;;;;7.30;4.03;;;9.50;56.50;;;11.53;44.05;99181.13;5375228;26;20048;-41
2024/04/12 04:07:15;;;;;;;6.80;4.47;;;9.60;56.60;;;11.49;44.34;99172.53;5376976;26;20367;-40
2024/04/12 04:09:45;;;;;;;6.97;5.07;;;9.50;56.60;;;11.48;44.18;99175.34;5380052;26;20028;-40
2024/04/12 04:12:16;;;;;;;6.77;4.30;;;9.50;56.50;;;11.45;44.11;99164.94;5380369;26;20517;-40
2024/04/12 04:14:48;;;;;;;8.00;4.13;;;9.50;57.00;;;11.45;44.33;99164.94;5379537;26;20032;-41
2024/04/12 04:17:28;;;;;;;;;;;9.50;57.10;;;11.43;44.36;99159.72;5381260;26;20040;-40
2024/04/12 04:20:05;;;;;;;6.97;3.33;;;9.50;58.50;;;11.43;44.38;99165.91;5380503;26;19949;-40
2024/04/12 04:25:07;;;;;;;4.10;3.30;;;9.40;57.50;;;11.35;44.56;99170.19;5377839;26;20044;-41
2024/04/12 04:27:38;;;;;;;8.80;4.07;;;9.30;57.10;;;11.31;44.35;99169.59;5380358;26;20036;-41
2024/04/12 04:30:07;;;;;;;4.90;2.97;;;9.30;57.30;;;11.31;44.76;99174.09;5380289;26;20044;-40
2024/04/12 04:32:35;;;;;;;3.93;3.17;;;9.30;57.30;;;11.30;44.58;99167.06;5379959;26;20029;-41
2024/04/12 04:35:08;;;;;;;5.53;3.80;;;9.30;57.20;;;11.28;44.94;99164.53;5379352;26;20352;-40
2024/04/12 04:37:37;;;;;;;;;;;9.30;57.50;;;11.26;44.58;99165.63;5380745;26;20367;-41
2024/04/12 04:40:20;;;;;;;7.13;3.97;;;9.30;58.60;;;11.28;44.51;99161.84;5379761;26;20028;-41
2024/04/12 04:42:49;;;;;;;15.87;4.03;;;9.20;57.50;;;11.25;44.65;99159.47;5380158;26;20032;-41
2024/04/12 04:45:18;;;;;;;7.77;4.40;;;9.20;57.20;;;11.23;44.49;99164.91;5379624;26;20475;-41
2024/04/12 04:47:48;;;;;;;7.10;4.10;;;9.20;57.10;;;11.22;44.97;99163.25;5379874;26;20028;-41
2024/04/12 04:50:19;;;;;;;6.27;4.80;;;9.20;57.40;;;11.19;44.97;99155.50;5380068;26;20032;-41
2024/04/12 04:52:48;;;;;;;6.60;4.60;;;9.30;57.50;;;11.20;45.19;99159.81;5378225;26;20031;-41
2024/04/12 04:55:17;;;;;;;8.67;4.57;;;9.30;57.50;;;11.20;45.09;99159.00;5377320;26;20036;-40
2024/04/12 04:57:54;;;;;;;11.50;6.13;;;9.20;57.90;;;11.18;45.22;99164.44;5379975;26;20032;-40
2024/04/12 05:00:24;;;;;;;7.97;3.27;;;9.20;58.00;;;11.12;45.12;99158.78;5379567;26;20036;-40
2024/04/12 05:02:53;;;;;;;4.90;3.40;;;9.10;58.30;;;11.10;45.42;99171.41;5379734;26;20487;-40
2024/04/12 05:05:23;;;;;;;5.23;3.20;;;9.10;58.50;;;11.12;45.49;99172.13;5377696;26;20491;-41
2024/04/12 05:07:57;;;;;;;5.63;3.80;;;9.10;58.40;;;11.12;45.61;99174.78;5392522;26;20040;-40
2024/04/12 05:10:33;;;;;;;8.00;4.93;;;9.10;58.70;;;11.14;45.77;99179.00;5377581;26;20036;-40
2024/04/12 05:13:06;;;;;;;7.30;3.83;;;9.10;59.00;;;11.15;45.61;99169.22;5379087;26;20032;-40
2024/04/12 05:18:12;;;;;;;7.73;3.87;;;9.20;60.20;;;11.19;45.71;99166.16;5366172;26;20023;-40
2024/04/12 05:20:47;;;;;;;7.30;3.30;;;9.20;59.40;;;11.22;45.71;99170.38;5378932;26;20414;-40
2024/04/12 05:23:17;;;;;;;5.65;3.65;;;9.20;59.50;;;11.26;45.56;99173.63;5378419;26;20274;-40
2024/04/12 05:25:46;;;;;;;6.03;4.33;;;9.30;59.10;;;11.29;45.75;99174.22;5379525;26;20116;-40
2024/04/12 05:28:14;;;;;;;10.13;4.60;;;9.40;58.70;;;11.35;45.91;99180.88;5379399;26;20036;-39
2024/04/12 05:30:44;;;;;;;10.60;5.13;;;9.50;58.60;;;11.39;45.70;99174.28;5379740;26;20032;-40
2024/04/12 05:33:16;;;;;;;10.17;4.93;;;9.50;58.90;;;11.41;45.72;99175.84;5378144;26;20048;-39
2024/04/12 05:35:46;;;;;;;6.43;3.80;;;9.60;58.20;;;11.43;45.47;99179.22;5377071;26;20035;-40
2024/04/12 05:38:20;;;;;;;7.50;3.53;;;9.70;57.40;;;11.50;45.44;99166.25;5377027;26;20491;-41
2024/04/12 05:40:52;;;;;;;8.13;3.67;;;9.80;57.40;;;11.57;45.56;99163.88;5377610;26;20032;-40
2024/04/12 05:43:21;;;;;;;9.73;3.47;;;9.80;57.50;;;11.61;45.75;99166.19;5376683;26;20032;-40
2024/04/12 05:45:51;;;;;;;5.37;3.70;;;9.80;57.70;;;11.67;45.50;99166.63;5379768;26;20035;-40
2024/04/12 05:48:22;;;;;;;4.97;3.20;;;9.90;57.60;;;11.69;45.66;99173.53;5378881;26;20028;-40
2024/04/12 05:50:54;;;;;;;5.10;2.80;;;9.80;57.30;;;11.71;45.34;99174.25;5379010;26;20032;-40
2024/04/12 05:53:29;;;;;;;6.33;2.90;;;9.90;57.60;;;11.75;45.05;99181.00;5378238;26;20491;-39
2024/04/12 05:58:45;;;;;;;6.50;3.00;;;10.00;57.70;;;11.84;45.81;99179.34;5377342;26;20036;-39
2024/04/12 06:01:12;;;;;;;6.07;3.30;;;10.00;58.20;;;11.87;45.67;99187.09;5379003;26;20468;-39
2024/04/12 06:03:48;;;;;;;6.37;3.30;;;10.10;58.50;;;11.91;45.67;99187.72;5375686;26;20043;-40
2024/04/12 06:06:21;;;;;;;5.23;3.07;;;10.10;58.20;;;11.95;45.65;99203.34;5367704;26;20037;-39
2024/04/12 06:08:52;;;;;;;4.73;3.23;;;10.20;58.10;;;11.96;45.65;99191.69;5379605;26;20109;-40
2024/04/12 06:11:22;;;;;;;4.47;2.93;;;10.20;57.70;;;12.01;45.23;99200.13;5378913;26;20044;-39
2024/04/12 06:13:53;;;;;;;5.73;3.43;;;10.30;57.20;;;12.05;45.40;99192.72;5378305;26;20036;-39
2024/04/12 06:16:23;;;;;;;16.00;3.87;;;10.40;57.50;;;12.09;45.14;99196.78;5378681;26;20036;-40
2024/04/12 06:18:52;;;;;;;6.87;3.77;;;10.40;56.60;;;12.13;45.77;99198.22;5378957;26;20494;-39
2024/04/12 06:21:19;;;;;;;6.27;3.47;;;10.50;57.10;;;12.18;45.56;99211.19;5378568;26;20052;-41
2024/04/12 06:23:54;;;;;;;6.47;3.23;;;10.50;57.10;;;12.21;45.51;99214.44;5377572;26;20048;-39
2024/04/12 06:26:23;;;;;;;7.40;3.07;;;10.50;57.40;;;12.22;45.27;99217.94;5378501;26;20024;-39
2024/04/12 06:28:54;;;;;;;4.97;3.20;;;10.50;57.20;;;12.26;45.62;99214.03;5378815;26;20045;-40
2024/04/12 06:31:34;;;;;;;5.37;3.23;;;10.60;56.90;;;12.28;45.21;99217.41;5377202;26;20035;-40
2024/04/12 06:34:04;;;;;;;5.60;2.93;;;10.60;56.70;;;12.33;45.47;99227.69;5378454;26;20048;-40
2024/04/12 06:36:34;;;;;;;7.90;3.33;;;10.60;56.60;;;12.39;45.45;99222.66;5376083;26;20064;-40
2024/04/12 06:39:05;;;;;;;5.60;3.23;;;10.70;56.60;;;12.46;45.40;99217.63;5378517;26;20028;-40
2024/04/12 06:41:34;;;;;;;7.07;3.87;;;10.80;56.60;;;12.51;45.34;99220.75;5376194;26;20036;-40
2024/04/12 06:44:03;;;;;;;8.97;3.50;;;10.90;56.60;;;12.58;45.27;99218.34;5375838;26;20036;-40
2024/04/12 06:46:35;;;;;;;6.37;3.80;;;11.00;56.50;;;12.61;45.45;99218.94;5391123;26;20047;-39
2024/04/12 06:49:09;;;;;;;5.67;4.00;;;11.00;56.50;;;12.67;45.91;99212.22;5378026;26;20373;-39
2024/04/12 06:54:35;;;;;;;8.67;4.40;;;11.20;58.40;;;12.80;46.31;99211.97;5366790;26;20004;-39
2024/04/12 06:57:04;;;;;;;6.93;4.67;;;11.20;59.30;;;12.86;47.05;99210.56;5378257;26;20055;-39
2024/04/12 06:59:36;;;;;;;12.40;4.20;;;11.20;60.30;;;12.90;47.25;99207.47;5378012;26;20028;-40
2024/04/12 07:02:08;;;;;;;10.80;4.43;;;11.40;60.80;;;12.96;47.47;99203.41;5378395;26;20040;-40
2024/04/12 07:04:38;;;;;;;7.17;4.20;;;11.40;61.40;;;13.00;47.43;99210.16;5377736;26;20036;-40
2024/04/12 07:07:07;;;;;;;6.57;4.37;;;11.50;61.40;;;13.03;47.31;99207.22;5378083;26;20032;-40
2024/04/12 07:09:38;;;;;;;7.97;4.20;;;11.50;62.40;;;13.09;47.51;99206.66;5364310;26;20040;-40
2024/04/12 07:12:06;;;;;;;6.73;3.63;;;11.60;61.50;;;13.14;47.74;99208.91;5369464;26;20011;-40
2024/04/12 07:14:36;;;;;;;8.13;4.47;;;11.60;61.30;;;13.20;47.84;99197.66;5369213;26;20458;-40
2024/04/12 07:17:20;;;;;;;9.93;4.00;;;11.70;61.20;;;13.27;47.91;99211.31;5377584;26;20380;-40
2024/04/12 07:19:54;;;;;;;7.60;3.63;;;11.80;61.00;;;13.33;47.88;99218.81;5377755;26;20040;-40
2024/04/12 07:22:26;;;;;;;8.90;3.78;;;11.90;60.50;;;13.38;48.03;99225.44;5362960;26;20044;-41
2024/04/12 07:24:55;;;;;;;6.30;3.60;;;11.90;60.70;;;13.44;47.60;99226.72;5376907;26;20136;-40
2024/04/12 07:27:27;;;;;;;7.10;4.03;;;12.00;60.40;;;13.50;47.55;99231.50;5375657;26;20036;-41
2024/04/12 07:29:57;;;;;;;5.07;3.67;;;12.00;60.10;;;13.54;47.04;99224.88;5377641;26;20097;-40
2024/04/12 07:32:35;;;;;;;8.82;3.70;;;12.10;60.00;;;13.60;47.18;99223.47;5377919;26;20052;-40
2024/04/12 07:35:22;;;;;;;5.75;3.80;;;12.10;59.50;;;13.63;46.88;99225.88;5376725;26;20028;-40
2024/04/12 07:37:59;;;;;;;7.45;3.30;;;12.20;58.70;;;13.69;46.72;99217.25;5378139;26;20044;-39
2024/04/12 07:40:34;;;;;;;5.43;3.30;;;12.20;58.30;;;13.73;46.65;99215.16;5365643;26;20033;-40
2024/04/12 07:43:08;;;;;;;9.45;3.65;;;12.30;58.10;;;13.79;47.17;99223.44;5374570;26;20008;-40
2024/04/12 07:45:42;;;;;;;13.48;3.47;;;12.30;58.40;;;13.86;46.87;99228.22;5377318;26;20008;-40
2024/04/12 07:50:54;;;;;;;10.00;5.50;;;12.60;59.30;;;13.95;48.35;99219.31;5380837;26;20028;-40
2024/04/12 07:53:25;;;;;;;5.75;4.22;;;12.60;61.60;;;13.99;48.59;99218.88;5378395;26;20036;-40
2024/04/12 07:55:58;;;;;;;11.57;4.72;;;12.70;61.50;;;14.04;48.40;99217.63;5380882;26;20383;-39
2024/04/12 07:58:28;;;;;;;10.18;4.40;;;12.70;62.60;;;14.05;48.03;99214.78;5369050;26;20032;-40
2024/04/12 08:04:22;;;;;;;13.75;3.90;;;12.80;60.50;;;14.19;47.21;99213.50;5378713;26;20492;-40
2024/04/12 08:09:34;;;;;;;10.18;4.03;;;12.90;60.40;;;14.35;47.23;99202.16;5379972;26;20040;-40
2024/04/12 08:12:14;;;;;;;7.50;3.35;;;13.00;58.60;;;14.42;46.47;99197.88;5381370;26;20028;-40
2024/04/12 08:14:55;;;;;;;5.05;3.35;;;13.00;57.90;;;14.48;46.67;99191.06;5379961;26;20049;-40
2024/04/12 08:17:27;;;;;;;7.72;3.05;;;13.10;57.60;;;14.54;46.25;99196.72;5366481;26;20067;-40
2024/04/12 08:20:00;;;;;;;8.27;4.10;;;13.20;57.30;;;14.60;46.49;99197.13;5380844;26;20506;-40
2024/04/12 08:22:33;;;;;;;7.72;3.72;;;13.20;57.20;;;14.65;46.14;99200.19;5337309;26;20028;-40
2024/04/12 08:25:02;;;;;;;6.95;3.88;;;13.30;57.00;;;14.70;46.15;99198.75;5379885;26;20032;-40
2024/04/12 08:27:31;;;;;;;6.57;3.85;;;13.30;56.80;;;14.75;45.86;99201.84;5380426;26;20032;-40
2024/04/12 08:29:59;;;;;;;7.03;3.80;;;13.40;56.50;;;14.77;45.93;99194.50;5380357;26;20020;-40
2024/04/12 08:32:28;;;;;;;12.88;5.18;;;13.50;56.60;;;14.84;46.22;99208.13;5380613;26;20032;-39
2024/04/12 08:35:06;;;;;;;8.18;4.22;;;13.50;56.30;;;14.90;46.06;99204.00;5376953;26;20032;-39
2024/04/12 08:37:38;;;;;;;12.98;5.00;;;13.60;56.20;;;14.96;46.01;99206.91;5395921;26;20479;-39
2024/04/12 08:40:10;;;;;;;8.98;4.50;;;13.60;56.50;;;15.04;46.55;99208.00;5377622;26;20056;-40
2024/04/12 08:42:39;;;;;;;7.93;4.93;;;13.70;57.40;;;15.00;47.47;99212.81;5380274;26;20028;-42
2024/04/12 08:45:17;;;;;;;10.45;5.32;;;13.70;59.40;;;14.98;48.38;99217.50;5379365;26;20031;-40
2024/04/12 08:48:01;;;;;;;9.60;4.75;;;13.80;61.80;;;14.99;48.11;99215.69;5380129;26;20169;-39
2024/04/12 08:50:31;;;;;;;9.60;3.90;;;13.80;60.00;;;14.90;47.66;99212.88;5378925;26;20372;-40
2024/04/12 08:53:04;;;;;;;7.07;3.90;;;13.70;58.40;;;14.92;47.12;99210.91;5377349;26;20373;-39
2024/04/12 08:55:35;;;;;;;8.38;4.00;;;13.80;57.80;;;14.94;46.78;99205.38;5378909;26;20048;-39
2024/04/12 08:58:06;;;;;;;7.57;3.90;;;13.80;56.00;;;14.96;46.33;99206.06;5379896;26;20035;-39
2024/04/12 09:00:35;;;;;;;9.63;4.78;;;13.80;56.30;;;15.04;45.60;99205.31;5380126;26;20072;-39
2024/04/12 09:03:10;;;;;;;8.10;3.90;;;13.80;55.50;;;15.03;45.43;99211.69;5373836;26;20041;-39
2024/04/12 09:05:42;;;;;;;9.20;3.72;;;13.80;54.40;;;14.99;45.19;99204.94;5378642;26;20562;-39
2024/04/12 09:08:17;;;;;;;10.23;4.53;;;13.80;54.30;;;15.00;44.82;99206.63;5379878;26;20032;-39
2024/04/12 09:10:46;;;;;;;5.55;3.78;;;13.80;53.60;;;15.03;44.92;99209.84;5378217;26;20044;-39
2024/04/12 09:13:16;;;;;;;8.75;4.15;;;13.90;53.80;;;15.13;44.86;99217.84;5407630;26;20052;-39
2024/04/12 09:15:45;;;;;;;6.63;4.10;;;14.00;52.90;;;15.20;44.53;99220.72;5379506;26;20367;-39
2024/04/12 09:18:15;;;;;;;8.07;3.92;;;13.90;53.50;;;15.22;44.55;99219.59;5377637;26;20491;-39
2024/04/12 09:20:52;;;;;;;10.18;4.30;;;14.00;53.10;;;15.26;44.38;99217.47;5379223;26;20028;-39
2024/04/12 09:23:32;;;;;;;5.97;3.75;;;14.10;53.20;;;15.34;43.95;99226.41;5379204;26;20401;-40
2024/04/12 09:26:21;;;;;;;9.88;3.88;;;14.20;52.10;;;15.41;43.72;99224.00;5380036;26;20241;-39
2024/04/12 09:28:51;;;;;;;7.88;3.60;;;14.30;52.10;;;15.48;43.45;99216.97;5368750;26;20056;-40
2024/04/12 09:34:22;;;;;;;6.47;3.65;;;14.40;52.00;;;15.65;43.03;99225.19;5378615;26;20039;-39
2024/04/12 09:37:02;;;;;;;4.85;3.03;;;14.50;50.90;;;15.56;42.13;99230.47;5379914;26;20040;-40
2024/04/12 09:39:57;;;;;;;4.18;3.15;;;14.60;48.70;;;15.67;42.38;99231.25;5365548;26;20414;-39
2024/04/12 09:45:27;;;;;;;7.07;3.92;;;14.70;46.60;;;15.79;41.00;99229.19;5377511;26;20032;-39
2024/04/12 10:39:19;;;;;;;7.00;3.72;;;16.50;42.60;;;17.66;37.78;99174.44;5376277;26;20036;-40
2024/04/12 10:41:48;;;;;;;6.90;3.80;;;16.60;43.10;;;17.74;37.24;99175.41;5378239;26;20040;-40
2024/04/12 10:44:16;;;;;;;6.05;3.78;;;16.80;42.20;;;17.82;36.80;99165.47;5378785;26;20056;-40
2024/04/12 10:46:47;;;;;;;9.07;4.13;;;16.90;40.70;;;17.90;36.69;99178.97;5377760;26;20091;-40
2024/04/12 10:49:15;;;;;;;7.63;3.42;;;17.00;39.60;;;17.86;36.47;99174.94;5378120;26;20033;-39
2024/04/12 10:51:43;;;;;;;7.55;3.97;;;17.10;40.80;;;17.91;36.49;99182.50;5378549;26;20031;-39
2024/04/12 10:54:10;;;;;;;6.43;3.60;;;17.20;39.90;;;17.95;36.65;99175.78;5377291;26;20105;-39
2024/04/12 10:56:46;;;;;;;5.00;3.78;;;17.20;41.20;;;18.03;36.43;99167.66;5377860;26;20032;-40
2024/04/12 10:59:26;;;;;;;7.30;4.45;;;17.10;40.40;;;18.07;36.79;99173.56;5378220;26;20032;-39
2024/04/12 11:01:57;;;;;;;7.47;3.25;;;17.00;41.80;;;18.12;37.14;99159.56;5405849;26;20032;-39
2024/04/12 11:04:28;;;;;;;8.68;3.40;;;17.00;42.30;;;18.13;36.62;99161.25;5378060;26;20435;-40
2024/04/12 11:06:56;;;;;;;8.50;3.20;;;17.00;41.10;;;18.12;36.88;99154.16;5376141;26;20499;-40
2024/04/12 11:09:30;;;;;;;8.35;3.90;;;17.00;41.70;;;18.15;36.63;99157.34;5377569;26;20374;-40
2024/04/12 11:12:09;;;;;;;8.13;4.25;;;17.00;41.80;;;18.20;36.96;99157.66;5378321;26;20381;-40
2024/04/12 11:14:38;;;;;;;8.23;3.65;;;17.00;42.00;;;18.23;36.75;99141.16;5363920;26;20040;-40
2024/04/12 11:31:07;;;;;;;6.80;3.45;;;17.20;42.50;;;18.37;36.64;99134.19;5371580;26;20484;-41
2024/04/12 11:31:28;;;;;;;7.15;3.42;;;17.40;40.30;;;18.50;36.26;99141.72;5380896;26;20040;-40
2024/04/12 11:33:57;;;;;;;6.22;2.63;;;17.50;40.60;;;18.54;36.17;99132.25;5380963;26;20108;-40
2024/04/12 11:36:40;;;;;;;6.78;2.85;;;17.60;41.30;;;18.50;35.56;99122.84;5367660;26;20034;-40
2024/04/12 11:39:17;;;;;;;6.53;3.35;;;17.50;40.30;;;18.58;36.62;99120.09;5381240;26;20032;-40
2024/04/12 11:41:47;;;;;;;6.55;3.42;;;17.60;41.60;;;18.57;35.95;99123.84;5367446;26;20365;-40
2024/04/12 11:44:17;;;;;;;8.85;2.78;;;17.60;40.10;;;18.64;36.11;99118.56;5380399;26;20373;-40
2024/04/12 11:46:46;;;;;;;5.35;2.72;;;17.70;40.50;;;18.69;36.08;99122.41;5380879;26;20386;-40
2024/04/12 11:49:25;;;;;;;6.88;3.03;;;17.70;40.90;;;18.73;36.05;99125.59;5380560;26;20036;-40
2024/04/12 11:51:56;;;;;;;7.63;3.30;;;17.80;40.80;;;18.81;35.33;99117.47;5381174;26;20374;-40
2024/04/12 11:54:29;;;;;;;7.03;3.90;;;17.80;39.70;;;18.77;35.21;99110.72;5380721;26;20032;-41
2024/04/12 11:57:00;;;;;;;4.88;3.35;;;17.80;39.10;;;18.75;35.45;99109.25;5378879;26;20004;-44
2024/04/12 11:59:32;;;;;;;10.23;4.07;;;17.90;39.90;;;18.84;35.37;99109.03;5378312;26;20606;-40
2024/04/12 12:02:04;;;;;;;7.03;3.08;;;17.90;39.90;;;18.91;35.44;99106.44;5380554;26;20028;-40
2024/04/12 12:04:32;;;;;;;7.70;3.30;;;17.90;39.90;;;19.00;35.40;99102.69;5376273;26;20059;-40
2024/04/12 12:07:05;;;;;;;5.10;2.67;;;17.90;40.00;;;18.84;35.09;99102.78;5406680;26;20000;-40
2024/04/12 12:09:37;;;;;;;5.43;2.80;;;18.00;39.30;;;18.84;35.25;99105.47;5378854;26;20036;-40
2024/04/12 12:12:12;;;;;;;7.13;3.10;;;18.10;39.30;;;18.97;35.17;99096.81;5380804;26;20036;-40
2024/04/12 12:14:42;;;;;;;6.35;2.67;;;18.10;39.50;;;19.03;35.19;99093.38;5367180;26;20351;-40